Time;durP1;ratioP1;P1;durP2;ratioP2;P2;SDS_P1;SDS_P2;PMS_P1;PMS_P2;Temp;Humidity;BMP_temperature;BMP_pressure;BME280_temperature;BME280_humidity;BME280_pressure;Samples;Min_cycle;Max_cycle;Signal;HPM_P1;HPM_P2
2022/04/04 00:00:40;;;;;;;10.73;9.27;;;;;1.70;96966.00;;;;4951595;28;20925;-71
2022/04/04 00:03:29;;;;;;;10.07;8.90;;;;;1.70;96966.00;;;;4951921;28;20480;-71
2022/04/04 00:06:18;;;;;;;11.17;9.90;;;;;1.80;96978.00;;;;4949956;28;20420;-71
2022/04/04 00:09:09;;;;;;;11.23;10.13;;;;;1.80;96968.00;;;;4952026;28;20432;-71
2022/04/04 00:11:58;;;;;;;13.70;10.10;;;;;1.70;96975.00;;;;4950664;29;20451;-71
2022/04/04 00:14:47;;;;;;;9.27;8.37;;;;;1.70;96977.00;;;;4944898;29;20440;-71
2022/04/04 00:17:36;;;;;;;11.20;9.87;;;;;1.80;96978.00;;;;4952766;28;20424;-71
2022/04/04 00:20:25;;;;;;;10.97;9.20;;;;;1.80;96973.00;;;;4952465;28;20466;-71
2022/04/04 00:23:14;;;;;;;12.67;9.43;;;;;1.70;96963.00;;;;4952492;28;20435;-71
2022/04/04 00:26:06;;;;;;;12.97;9.23;;;;;1.70;96987.00;;;;4950224;28;20812;-71
2022/04/04 00:28:55;;;;;;;12.30;10.60;;;;;1.80;96981.00;;;;4949879;28;20486;-71
2022/04/04 00:31:44;;;;;;;15.87;11.90;;;;;1.80;96983.00;;;;4952182;29;20471;-71
2022/04/04 00:34:33;;;;;;;15.00;10.97;;;;;1.80;96971.00;;;;4950448;29;20448;-71
2022/04/04 00:37:22;;;;;;;15.93;9.83;;;;;1.70;96967.00;;;;4944796;28;20816;-71
2022/04/04 00:40:12;;;;;;;13.30;9.50;;;;;1.70;96974.00;;;;4950777;28;20459;-71
2022/04/04 00:43:02;;;;;;;11.70;10.27;;;;;1.70;96976.00;;;;4951404;29;20967;-71
2022/04/04 00:45:51;;;;;;;11.50;10.30;;;;;1.60;96978.00;;;;4951346;29;20975;-71
2022/04/04 00:48:40;;;;;;;11.37;10.17;;;;;1.60;96968.00;;;;4948921;29;20472;-71
2022/04/04 00:51:29;;;;;;;15.30;10.87;;;;;1.70;96967.00;;;;4951071;29;20454;-71
2022/04/04 00:54:19;;;;;;;11.30;10.10;;;;;1.70;96971.00;;;;4951239;28;20448;-71
2022/04/04 00:57:08;;;;;;;11.70;10.17;;;;;1.60;96974.00;;;;4952181;28;20440;-71
2022/04/04 00:59:58;;;;;;;15.40;9.97;;;;;1.60;96963.00;;;;4948599;28;21015;-71
2022/04/04 01:02:47;;;;;;;14.83;9.53;;;;;1.60;96961.00;;;;4949815;29;20631;-71
2022/04/04 01:05:36;;;;;;;13.00;10.67;;;;;1.50;96973.00;;;;4951887;29;20439;-71
2022/04/04 01:08:26;;;;;;;17.93;11.60;;;;;1.40;96963.00;;;;4951442;28;20448;-71
2022/04/04 01:11:15;;;;;;;13.73;11.50;;;;;1.30;96959.00;;;;4950054;29;20440;-71
2022/04/04 01:14:04;;;;;;;12.67;10.20;;;;;1.40;96971.00;;;;4949293;29;20440;-71
2022/04/04 01:16:54;;;;;;;17.00;10.97;;;;;1.50;96961.00;;;;4950691;29;20447;-71
2022/04/04 01:19:43;;;;;;;13.97;11.07;;;;;1.50;96959.00;;;;4949989;28;20467;-71
2022/04/04 01:22:32;;;;;;;16.37;11.50;;;;;1.40;96970.00;;;;4944086;29;20440;-71
2022/04/04 01:25:27;;;;;;;12.43;9.93;;;;;1.30;96957.00;;;;4953517;28;20431;-71
2022/04/04 01:28:16;;;;;;;13.17;11.87;;;;;1.30;96961.00;;;;4949918;29;20502;-71
2022/04/04 01:31:05;;;;;;;12.33;10.37;;;;;1.30;96944.00;;;;4943993;28;20452;-71
2022/04/04 01:33:54;;;;;;;13.10;11.27;;;;;1.30;96950.00;;;;4951150;28;20424;-71
2022/04/04 01:36:43;;;;;;;12.10;10.27;;;;;1.30;96950.00;;;;4949388;28;20961;-71
2022/04/04 01:39:32;;;;;;;12.53;11.23;;;;;1.10;96943.00;;;;4949127;28;20460;-71
2022/04/04 01:42:23;;;;;;;10.77;9.67;;;;;1.10;96946.00;;;;4949910;29;20443;-71
2022/04/04 01:45:12;;;;;;;12.90;10.93;;;;;1.20;96950.00;;;;4941594;29;20447;-71
2022/04/04 01:48:01;;;;;;;14.87;13.27;;;;;1.10;96948.00;;;;4937446;29;20486;-71
2022/04/04 01:50:50;;;;;;;11.00;9.90;;;;;1.00;96949.00;;;;4926805;29;20499;-71
2022/04/04 01:53:39;;;;;;;10.10;8.87;;;;;1.00;96946.00;;;;4931519;29;20969;-71
2022/04/04 01:56:29;;;;;;;9.80;8.37;;;;;0.90;96945.00;;;;4931089;29;20444;-71
2022/04/04 01:59:19;;;;;;;12.47;10.57;;;;;0.90;96949.00;;;;4937755;29;20761;-71
2022/04/04 02:02:08;;;;;;;11.37;9.93;;;;;0.80;96950.00;;;;4927993;29;20432;-71
2022/04/04 02:04:58;;;;;;;12.87;9.87;;;;;0.70;96943.00;;;;4931553;29;20440;-71
2022/04/04 02:07:47;;;;;;;11.33;9.50;;;;;0.40;96950.00;;;;4930621;29;20472;-71
2022/04/04 02:10:36;;;;;;;10.33;8.23;;;;;0.50;96940.00;;;;4931296;29;20468;-71
2022/04/04 02:13:25;;;;;;;9.80;8.80;;;;;0.40;96939.00;;;;4924191;29;20444;-71
2022/04/04 02:16:16;;;;;;;7.80;6.17;;;;;-0.20;96928.00;;;;4932325;29;20436;-71
2022/04/04 02:19:05;;;;;;;14.00;10.33;;;;;0.10;96945.00;;;;4938811;29;20444;-70
2022/04/04 02:21:54;;;;;;;9.13;6.90;;;;;-0.10;96942.00;;;;4942077;29;20445;-67
2022/04/04 02:24:43;;;;;;;4.37;3.97;;;;;-0.40;96935.00;;;;4943156;29;20451;-71
2022/04/04 02:27:32;;;;;;;7.80;6.33;;;;;-0.40;96937.00;;;;4927438;29;20429;-71
2022/04/04 02:30:21;;;;;;;8.63;7.83;;;;;-0.30;96942.00;;;;4930587;29;20465;-70
2022/04/04 02:33:12;;;;;;;11.57;9.87;;;;;-0.20;96929.00;;;;4930852;29;20437;-71
2022/04/04 02:36:02;;;;;;;10.00;7.00;;;;;-0.40;96936.00;;;;4923691;29;20429;-71
2022/04/04 02:38:51;;;;;;;11.37;10.00;;;;;-0.30;96942.00;;;;4930079;29;20756;-70
2022/04/04 02:41:40;;;;;;;8.47;6.73;;;;;-0.50;96940.00;;;;4944689;29;20447;-71
2022/04/04 02:44:29;;;;;;;10.93;9.30;;;;;-0.40;96939.00;;;;4939592;29;20452;-70
2022/04/04 02:47:18;;;;;;;10.23;8.30;;;;;-0.40;96941.00;;;;4937820;28;20432;-71
2022/04/04 02:50:10;;;;;;;11.23;9.77;;;;;-0.40;96944.00;;;;4929359;29;21044;-71
2022/04/04 02:52:59;;;;;;;15.77;11.87;;;;;-0.30;96941.00;;;;4934625;29;21004;-70
2022/04/04 02:58:55;;;;;;;16.50;11.20;;;;;-0.10;96942.00;;;;4929455;29;20436;-71
2022/04/04 03:01:48;;;;;;;13.10;10.70;;;;;0.00;96946.00;;;;4932684;29;20437;-71
2022/04/04 03:04:40;;;;;;;12.20;10.93;;;;;-0.10;96940.00;;;;4927443;29;20444;-71
2022/04/04 03:07:30;;;;;;;12.70;9.83;;;;;-0.10;96953.00;;;;4932197;29;21000;-71
2022/04/04 03:10:19;;;;;;;12.67;10.97;;;;;-0.10;96946.00;;;;4934557;29;20481;-71
2022/04/04 03:13:09;;;;;;;15.10;12.53;;;;;-0.10;96945.00;;;;4934411;29;20524;-71
2022/04/04 03:15:58;;;;;;;14.47;10.70;;;;;-0.20;96940.00;;;;4933641;29;20445;-70
2022/04/04 03:18:47;;;;;;;15.17;12.47;;;;;-0.20;96941.00;;;;4933856;29;20441;-69
2022/04/04 03:21:36;;;;;;;12.27;10.93;;;;;-0.20;96939.00;;;;4934279;29;20957;-69
2022/04/04 03:24:28;;;;;;;12.07;10.70;;;;;-0.20;96931.00;;;;4929395;29;20445;-70
2022/04/04 03:27:17;;;;;;;15.87;11.33;;;;;-0.10;96950.00;;;;4946604;28;20440;-69
2022/04/04 03:30:11;;;;;;;14.57;11.60;;;;;-0.20;96943.00;;;;4932538;29;20566;-69
2022/04/04 03:33:00;;;;;;;15.80;11.07;;;;;-0.10;96937.00;;;;4928867;29;20449;-70
2022/04/04 03:35:49;;;;;;;11.50;10.33;;;;;-0.10;96941.00;;;;4935019;29;20424;-69
2022/04/04 03:38:38;;;;;;;14.23;11.23;;;;;-0.20;96936.00;;;;4932833;28;20440;-70
2022/04/04 03:41:28;;;;;;;15.83;11.93;;;;;-0.10;96937.00;;;;4936184;29;20436;-70
2022/04/04 03:44:17;;;;;;;11.87;9.47;;;;;-0.30;96939.00;;;;4944423;28;20821;-69
2022/04/04 03:47:07;;;;;;;13.07;9.93;;;;;-0.10;96942.00;;;;4939797;29;20436;-70
2022/04/04 03:49:56;;;;;;;10.50;9.40;;;;;0.00;96942.00;;;;4942485;29;20483;-70
2022/04/04 03:52:47;;;;;;;16.87;11.40;;;;;0.10;96946.00;;;;4929181;29;20447;-70
2022/04/04 03:55:39;;;;;;;13.50;10.47;;;;;0.00;96941.00;;;;4926282;29;20973;-70
2022/04/04 03:58:29;;;;;;;13.23;10.23;;;;;0.00;96932.00;;;;4924088;29;20433;-70
2022/04/04 04:01:18;;;;;;;12.67;10.93;;;;;0.00;96945.00;;;;4940752;28;20428;-70
2022/04/04 04:04:07;;;;;;;12.50;11.20;;;;;0.00;96939.00;;;;4938464;29;21260;-70
2022/04/04 04:06:56;;;;;;;12.17;9.57;;;;;0.00;96945.00;;;;4931913;29;20444;-69
2022/04/04 04:09:45;;;;;;;10.53;9.43;;;;;-0.10;96948.00;;;;4922114;29;20461;-70
2022/04/04 04:12:34;;;;;;;12.93;11.20;;;;;0.00;96940.00;;;;4929344;29;20442;-69
2022/04/04 04:15:25;;;;;;;12.03;10.57;;;;;0.00;96941.00;;;;4930172;29;20433;-70
2022/04/04 04:18:14;;;;;;;15.07;10.87;;;;;0.10;96944.00;;;;4934272;29;20433;-69
2022/04/04 04:21:03;;;;;;;12.83;10.40;;;;;0.00;96938.00;;;;4922436;29;20454;-69
2022/04/04 04:23:53;;;;;;;16.30;11.53;;;;;0.00;96935.00;;;;4936282;29;20421;-69
2022/04/04 04:26:42;;;;;;;15.60;9.77;;;;;-0.10;96930.00;;;;4929435;29;20438;-69
2022/04/04 04:29:32;;;;;;;13.17;9.87;;;;;0.10;96938.00;;;;4919403;29;20473;-69
2022/04/04 04:32:22;;;;;;;12.00;9.80;;;;;0.20;96933.00;;;;4935017;29;20814;-69
2022/04/04 04:35:12;;;;;;;12.23;10.20;;;;;0.10;96932.00;;;;4933283;29;20863;-69
2022/04/04 04:38:01;;;;;;;11.23;9.23;;;;;0.20;96941.00;;;;4924524;29;20444;-70
2022/04/04 04:40:50;;;;;;;14.70;10.70;;;;;0.20;96949.00;;;;4935072;29;20441;-69
2022/04/04 04:43:41;;;;;;;11.43;9.93;;;;;0.30;96943.00;;;;4934194;28;20815;-70
2022/04/04 04:46:31;;;;;;;13.87;10.77;;;;;0.30;96943.00;;;;4952114;28;20436;-70
2022/04/04 04:49:22;;;;;;;14.30;10.70;;;;;0.30;96946.00;;;;4947959;28;20484;-69
2022/04/04 04:52:11;;;;;;;12.83;10.30;;;;;0.20;96939.00;;;;4944046;29;20439;-70
2022/04/04 04:55:00;;;;;;;12.17;9.57;;;;;0.20;96936.00;;;;4949056;29;20987;-70
2022/04/04 04:57:50;;;;;;;11.50;9.47;;;;;0.20;96934.00;;;;4944969;29;20463;-70
2022/04/04 05:00:40;;;;;;;12.07;9.83;;;;;0.20;96948.00;;;;4950076;28;20831;-70
2022/04/04 05:03:29;;;;;;;13.83;10.53;;;;;0.20;96949.00;;;;4947567;29;20807;-70
2022/04/04 05:06:20;;;;;;;16.00;10.70;;;;;0.20;96948.00;;;;4946291;29;20437;-69
2022/04/04 05:09:09;;;;;;;14.37;10.53;;;;;0.30;96947.00;;;;4949828;28;20463;-70
2022/04/04 05:11:58;;;;;;;11.50;10.23;;;;;0.40;96947.00;;;;4950447;28;20641;-69
2022/04/04 05:14:48;;;;;;;12.10;10.73;;;;;0.50;96944.00;;;;4949009;29;20438;-69
2022/04/04 05:17:37;;;;;;;19.53;13.00;;;;;0.40;96938.00;;;;4949388;29;20436;-70
2022/04/04 05:20:26;;;;;;;17.80;11.43;;;;;0.50;96946.00;;;;4949600;28;20443;-70
2022/04/04 05:23:16;;;;;;;13.73;10.73;;;;;0.50;96939.00;;;;4951630;28;20440;-69
2022/04/04 05:26:05;;;;;;;11.50;10.23;;;;;0.40;96945.00;;;;4955651;28;20446;-70
2022/04/04 05:28:55;;;;;;;12.40;10.57;;;;;0.50;96947.00;;;;4943405;29;20915;-69
2022/04/04 05:31:46;;;;;;;10.97;9.63;;;;;0.30;96949.00;;;;4943265;28;20735;-69
2022/04/04 05:34:35;;;;;;;11.80;10.47;;;;;0.10;96940.00;;;;4948948;29;20435;-69
2022/04/04 05:37:25;;;;;;;11.03;9.93;;;;;0.00;96939.00;;;;4949309;28;20439;-69
2022/04/04 05:40:15;;;;;;;11.00;9.43;;;;;0.00;96942.00;;;;4951261;28;20615;-70
2022/04/04 05:43:04;;;;;;;12.23;9.90;;;;;0.30;96936.00;;;;4947095;29;20952;-70
2022/04/04 05:45:53;;;;;;;13.33;11.30;;;;;0.30;96938.00;;;;4928172;29;20445;-69
2022/04/04 05:48:42;;;;;;;10.50;9.40;;;;;0.40;96936.00;;;;4927322;29;20455;-69
2022/04/04 05:51:33;;;;;;;14.53;10.17;;;;;0.50;96942.00;;;;4931868;29;20469;-69
2022/04/04 05:54:27;;;;;;;12.63;10.03;;;;;0.60;96947.00;;;;4928020;29;20443;-69
2022/04/04 05:57:17;;;;;;;11.33;9.13;;;;;0.60;96941.00;;;;4931618;29;20440;-69
2022/04/04 06:00:10;;;;;;;11.67;10.43;;;;;0.80;96953.00;;;;4926795;29;20449;-70
2022/04/04 06:02:59;;;;;;;16.60;10.37;;;;;0.90;96955.00;;;;4926173;28;20846;-69
2022/04/04 06:05:49;;;;;;;16.03;11.27;;;;;1.00;96967.00;;;;4931048;29;20460;-70
2022/04/04 06:08:38;;;;;;;12.57;9.60;;;;;1.10;96960.00;;;;4930580;29;20433;-69
2022/04/04 06:11:28;;;;;;;12.93;10.93;;;;;1.10;96956.00;;;;4922575;29;20469;-69
2022/04/04 06:14:18;;;;;;;13.07;9.77;;;;;1.00;96966.00;;;;4931840;29;20437;-69
2022/04/04 06:17:07;;;;;;;12.53;10.50;;;;;1.00;96973.00;;;;4929933;29;20464;-69
2022/04/04 06:19:56;;;;;;;16.50;11.23;;;;;1.10;96973.00;;;;4929095;29;20460;-69
2022/04/04 06:22:45;;;;;;;13.77;10.23;;;;;0.80;96973.00;;;;4929475;29;20428;-69
2022/04/04 06:25:34;;;;;;;13.70;10.37;;;;;0.90;96975.00;;;;4940531;29;20436;-69
2022/04/04 06:28:24;;;;;;;16.83;13.13;;;;;0.90;96973.00;;;;4931708;29;20992;-69
2022/04/04 06:31:15;;;;;;;19.03;13.37;;;;;1.00;96969.00;;;;4932364;29;21044;-69
2022/04/04 06:34:05;;;;;;;11.80;10.07;;;;;1.00;96980.00;;;;4930637;29;20432;-69
2022/04/04 06:36:54;;;;;;;12.60;11.27;;;;;1.20;96987.00;;;;4935960;29;20432;-69
2022/04/04 06:39:43;;;;;;;13.03;9.60;;;;;1.00;96977.00;;;;4930293;29;20495;-69
2022/04/04 06:42:35;;;;;;;12.10;9.70;;;;;1.00;96979.00;;;;4933148;29;20436;-69
2022/04/04 06:45:25;;;;;;;11.43;9.73;;;;;1.00;96971.00;;;;4940059;29;20443;-69
2022/04/04 06:48:15;;;;;;;13.83;10.00;;;;;1.00;96975.00;;;;4950609;29;20448;-69
2022/04/04 06:51:05;;;;;;;11.87;10.40;;;;;1.00;96968.00;;;;4951319;28;20495;-69
2022/04/04 06:53:54;;;;;;;10.53;9.17;;;;;1.00;96974.00;;;;4951609;29;20950;-70
2022/04/04 06:56:43;;;;;;;11.37;10.17;;;;;1.10;96976.00;;;;4953104;29;20443;-70
2022/04/04 06:59:32;;;;;;;11.77;9.80;;;;;1.10;96973.00;;;;4951098;28;20832;-69
2022/04/04 07:02:21;;;;;;;12.13;10.33;;;;;1.10;96972.00;;;;4949444;29;20443;-69
2022/04/04 07:05:12;;;;;;;12.83;9.10;;;;;1.20;96973.00;;;;4953174;29;20968;-70
2022/04/04 07:08:01;;;;;;;15.37;10.40;;;;;1.00;96969.00;;;;4948220;29;20455;-70
2022/04/04 07:10:51;;;;;;;10.97;9.80;;;;;1.10;96967.00;;;;4951197;28;20995;-69
2022/04/04 07:13:40;;;;;;;12.40;10.33;;;;;1.30;96969.00;;;;4953011;28;20451;-69
2022/04/04 07:16:29;;;;;;;15.57;10.93;;;;;1.40;96964.00;;;;4947987;28;20983;-69
2022/04/04 07:19:18;;;;;;;12.43;9.87;;;;;1.30;96966.00;;;;4950373;28;20486;-69
2022/04/04 07:22:10;;;;;;;11.67;10.13;;;;;1.20;96965.00;;;;4953807;29;20434;-68
2022/04/04 07:24:59;;;;;;;12.93;9.63;;;;;1.20;96962.00;;;;4957974;28;20432;-69
2022/04/04 07:27:49;;;;;;;12.73;10.40;;;;;1.50;96960.00;;;;4953114;29;20428;-68
2022/04/04 07:30:38;;;;;;;13.63;12.20;;;;;1.70;96955.00;;;;4950589;28;20518;-68
2022/04/04 07:33:27;;;;;;;18.60;11.47;;;;;1.80;96955.00;;;;4954174;28;20432;-69
2022/04/04 07:36:17;;;;;;;16.00;10.37;;;;;1.50;96954.00;;;;4953210;28;20443;-69
2022/04/04 07:39:08;;;;;;;13.20;10.10;;;;;1.60;96943.00;;;;4951317;28;20451;-68
2022/04/04 07:41:57;;;;;;;15.67;11.43;;;;;1.70;96963.00;;;;4950646;29;20948;-69
2022/04/04 07:44:47;;;;;;;12.43;9.87;;;;;1.70;96960.00;;;;4947624;29;20474;-69
2022/04/04 07:47:36;;;;;;;11.37;9.37;;;;;1.60;96975.00;;;;4950963;29;20998;-68
2022/04/04 07:50:26;;;;;;;12.20;10.40;;;;;1.60;96969.00;;;;4947583;28;20795;-69
2022/04/04 07:53:15;;;;;;;13.23;9.23;;;;;1.80;96979.00;;;;4951363;28;20940;-69
2022/04/04 07:56:06;;;;;;;10.80;9.70;;;;;1.50;96964.00;;;;4946821;28;20461;-69
2022/04/04 07:58:55;;;;;;;11.33;10.13;;;;;1.80;96953.00;;;;4943311;28;20967;-69
2022/04/04 08:01:44;;;;;;;11.10;9.47;;;;;2.20;96946.00;;;;4952011;28;20980;-69
2022/04/04 08:04:33;;;;;;;12.33;10.00;;;;;2.60;96953.00;;;;4952106;29;20778;-69
2022/04/04 08:07:22;;;;;;;11.27;10.07;;;;;2.70;96962.00;;;;4946361;29;20442;-69
2022/04/04 08:10:11;;;;;;;11.63;10.40;;;;;1.20;96952.00;;;;4944912;28;20468;-69
2022/04/04 08:13:02;;;;;;;13.67;11.17;;;;;2.00;96951.00;;;;4948775;29;20440;-69
2022/04/04 08:15:51;;;;;;;15.30;11.53;;;;;2.20;96950.00;;;;4952788;28;20440;-70
2022/04/04 08:18:40;;;;;;;13.67;11.17;;;;;2.40;96945.00;;;;4950688;28;20439;-70
2022/04/04 08:21:29;;;;;;;13.07;10.17;;;;;1.80;96950.00;;;;4949922;29;20964;-69
2022/04/04 08:24:20;;;;;;;15.60;10.80;;;;;2.10;96956.00;;;;4951469;28;20439;-69
2022/04/04 08:27:10;;;;;;;12.73;10.23;;;;;2.10;96952.00;;;;4951720;28;20443;-69
2022/04/04 08:30:00;;;;;;;13.77;10.87;;;;;2.20;96949.00;;;;4945209;28;20969;-68
2022/04/04 08:32:49;;;;;;;13.40;12.00;;;;;2.20;96950.00;;;;4950287;29;20865;-69
2022/04/04 08:35:38;;;;;;;17.83;12.47;;;;;1.90;96949.00;;;;4950727;28;20431;-69
2022/04/04 08:38:27;;;;;;;16.30;12.17;;;;;1.90;96940.00;;;;4950031;29;20451;-69
2022/04/04 08:41:16;;;;;;;14.40;11.03;;;;;1.90;96955.00;;;;4955029;28;20427;-69
2022/04/04 08:44:07;;;;;;;12.73;10.50;;;;;1.60;96951.00;;;;4943465;29;20909;-70
2022/04/04 08:46:57;;;;;;;16.80;11.47;;;;;1.70;96932.00;;;;4945671;28;20440;-70
2022/04/04 08:49:46;;;;;;;12.77;10.73;;;;;1.50;96934.00;;;;4949763;28;20455;-69
2022/04/04 08:52:35;;;;;;;16.13;12.00;;;;;1.70;96935.00;;;;4947868;29;20476;-69
2022/04/04 08:55:24;;;;;;;16.33;11.53;;;;;1.90;96923.00;;;;4948426;29;20790;-69
2022/04/04 08:58:14;;;;;;;14.33;10.50;;;;;1.70;96921.00;;;;4950321;29;20727;-69
2022/04/04 09:01:03;;;;;;;11.90;10.20;;;;;1.50;96927.00;;;;4945196;28;20994;-69
2022/04/04 09:04:05;;;;;;;13.73;10.03;;;;;1.60;96930.00;;;;4946020;28;20454;-70
2022/04/04 09:06:56;;;;;;;11.43;10.27;;;;;1.70;96926.00;;;;4950453;28;20800;-69
2022/04/04 09:09:48;;;;;;;17.37;11.57;;;;;2.00;96931.00;;;;4957475;28;20510;-69
2022/04/04 09:12:38;;;;;;;15.43;11.57;;;;;2.00;96917.00;;;;4951170;28;20462;-69
2022/04/04 09:15:27;;;;;;;14.40;10.53;;;;;1.80;96917.00;;;;4951937;28;20730;-69
2022/04/04 09:18:16;;;;;;;12.63;9.97;;;;;1.90;96919.00;;;;4950524;29;20969;-70
2022/04/04 09:21:08;;;;;;;13.17;11.03;;;;;2.30;96916.00;;;;4949766;29;20452;-70
2022/04/04 09:23:58;;;;;;;13.80;11.33;;;;;2.40;96910.00;;;;4951713;28;20805;-69
2022/04/04 09:26:48;;;;;;;15.23;11.90;;;;;2.40;96909.00;;;;4949039;29;20820;-70
2022/04/04 09:29:42;;;;;;;12.50;11.20;;;;;2.40;96903.00;;;;4948931;28;20490;-69
2022/04/04 09:32:38;;;;;;;12.30;11.00;;;;;2.20;96901.00;;;;4950325;29;20483;-70
2022/04/04 09:35:32;;;;;;;12.50;11.20;;;;;2.10;96903.00;;;;4945904;29;20439;-70
2022/04/04 09:38:23;;;;;;;16.03;12.53;;;;;2.00;96889.00;;;;4944784;29;20436;-70
2022/04/04 09:41:20;;;;;;;15.50;10.50;;;;;2.10;96890.00;;;;4949135;29;20455;-70
2022/04/04 09:44:12;;;;;;;13.30;11.90;;;;;2.40;96886.00;;;;4945307;29;20975;-70
2022/04/04 09:47:01;;;;;;;11.83;10.63;;;;;2.80;96888.00;;;;4948073;29;20444;-69
2022/04/04 09:49:50;;;;;;;15.37;12.03;;;;;2.70;96891.00;;;;4946521;29;20452;-70
2022/04/04 09:52:52;;;;;;;12.87;10.17;;;;;2.90;96889.00;;;;4946835;29;21018;-70
2022/04/04 09:55:44;;;;;;;12.70;11.40;;;;;3.00;96878.00;;;;4949100;28;20798;-70
2022/04/04 09:58:34;;;;;;;17.37;11.77;;;;;2.80;96881.00;;;;4948434;28;20432;-70
2022/04/04 10:01:23;;;;;;;11.80;10.60;;;;;1.90;96868.00;;;;4948764;29;20428;-70
2022/04/04 10:04:13;;;;;;;12.97;10.87;;;;;2.40;96868.00;;;;4945361;29;20938;-70
2022/04/04 10:07:05;;;;;;;14.30;9.87;;;;;1.70;96862.00;;;;4948560;29;20455;-70
2022/04/04 10:09:54;;;;;;;14.33;10.20;;;;;1.90;96863.00;;;;4944876;28;20464;-70
2022/04/04 10:12:45;;;;;;;13.73;11.47;;;;;2.10;96858.00;;;;4939207;28;20581;-71
2022/04/04 10:15:36;;;;;;;14.47;12.03;;;;;2.20;96857.00;;;;4944637;29;20428;-71
2022/04/04 10:18:25;;;;;;;12.97;11.17;;;;;2.10;96850.00;;;;4947845;29;20460;-71
2022/04/04 10:21:18;;;;;;;14.13;12.53;;;;;2.60;96849.00;;;;4948820;29;20789;-71
2022/04/04 10:24:09;;;;;;;14.13;12.47;;;;;2.60;96836.00;;;;4950269;28;20435;-71
2022/04/04 10:26:58;;;;;;;13.57;9.83;;;;;2.80;96829.00;;;;4949299;28;20420;-71
2022/04/04 10:29:49;;;;;;;14.80;11.60;;;;;2.60;96827.00;;;;4945336;28;20468;-71
2022/04/04 10:32:49;;;;;;;15.67;12.27;;;;;3.10;96843.00;;;;4941925;29;20468;-71
2022/04/04 10:35:38;;;;;;;14.60;11.33;;;;;3.00;96834.00;;;;4946341;29;20450;-72
2022/04/04 10:38:30;;;;;;;16.93;11.80;;;;;3.70;96825.00;;;;4947815;28;20444;-72
2022/04/04 10:41:20;;;;;;;15.90;12.13;;;;;3.60;96827.00;;;;4949439;29;20435;-72
2022/04/04 10:44:10;;;;;;;12.07;10.47;;;;;3.30;96817.00;;;;4945792;29;20448;-71
2022/04/04 10:47:03;;;;;;;14.23;11.80;;;;;4.20;96820.00;;;;4928081;29;20433;-71
2022/04/04 10:49:52;;;;;;;14.17;12.67;;;;;4.70;96829.00;;;;4926748;28;20560;-72
2022/04/04 10:52:43;;;;;;;14.17;10.97;;;;;4.80;96823.00;;;;4927364;29;21000;-71
2022/04/04 10:55:49;;;;;;;15.17;12.37;;;;;4.40;96822.00;;;;4932315;28;20440;-72
2022/04/04 10:58:38;;;;;;;15.43;13.17;;;;;4.80;96809.00;;;;4932860;29;20455;-71
2022/04/04 11:01:29;;;;;;;15.63;12.63;;;;;5.10;96823.00;;;;4930388;29;20223;-72
2022/04/04 11:04:26;;;;;;;13.10;11.57;;;;;5.00;96810.00;;;;4928819;29;20195;-72
2022/04/04 11:10:41;;;;;;;13.37;11.17;;;;;5.00;96807.00;;;;4931160;28;20632;-72
2022/04/04 11:13:30;;;;;;;13.23;11.83;;;;;5.60;96805.00;;;;4927796;29;20238;-72
2022/04/04 11:16:19;;;;;;;13.93;11.37;;;;;4.80;96793.00;;;;4941909;29;20556;-71
2022/04/04 11:19:12;;;;;;;12.97;11.63;;;;;5.40;96788.00;;;;4942363;29;20674;-71
2022/04/04 11:22:02;;;;;;;14.03;12.07;;;;;5.70;96790.00;;;;4923734;29;20212;-72
2022/04/04 11:24:53;;;;;;;14.80;12.63;;;;;4.30;96767.00;;;;4949594;29;20223;-71
2022/04/04 11:27:47;;;;;;;13.67;11.30;;;;;5.10;96764.00;;;;4939376;29;20220;-72
2022/04/04 11:30:36;;;;;;;14.10;11.93;;;;;4.20;96749.00;;;;4934909;28;20225;-72
2022/04/04 11:33:27;;;;;;;13.93;11.53;;;;;4.40;96756.00;;;;4934786;29;20394;-71
2022/04/04 11:36:22;;;;;;;12.20;10.57;;;;;3.50;96741.00;;;;4926813;28;20220;-71
2022/04/04 11:39:13;;;;;;;14.03;12.07;;;;;3.80;96732.00;;;;4928198;28;20233;-72
2022/04/04 11:42:02;;;;;;;13.30;10.53;;;;;4.00;96751.00;;;;4928396;29;20204;-71
2022/04/04 11:44:51;;;;;;;13.10;11.77;;;;;3.80;96746.00;;;;4945181;29;20297;-71
2022/04/04 11:47:41;;;;;;;12.77;10.87;;;;;3.60;96734.00;;;;4953032;28;20612;-72
2022/04/04 11:50:31;;;;;;;13.63;12.17;;;;;4.30;96742.00;;;;4950391;28;20225;-72
2022/04/04 11:53:22;;;;;;;15.43;12.90;;;;;4.00;96725.00;;;;4951072;29;20482;-71
2022/04/04 11:56:21;;;;;;;17.23;10.53;;;;;4.70;96725.00;;;;4948986;29;20491;-71
2022/04/04 11:59:10;;;;;;;12.87;10.90;;;;;5.30;96727.00;;;;4953403;28;20204;-71
2022/04/04 12:02:02;;;;;;;14.63;11.93;;;;;5.70;96726.00;;;;4953734;28;20208;-72
2022/04/04 12:04:52;;;;;;;13.50;11.27;;;;;5.60;96720.00;;;;4952753;29;20645;-72
2022/04/04 12:07:41;;;;;;;15.50;8.63;;;;;4.70;96714.00;;;;4946561;29;20215;-71
2022/04/04 12:10:32;;;;;;;13.57;10.73;;;;;4.80;96699.00;;;;4947071;28;20224;-72
2022/04/04 12:13:23;;;;;;;13.60;12.10;;;;;5.50;96693.00;;;;4945295;28;20461;-72
2022/04/04 12:16:13;;;;;;;19.97;11.43;;;;;6.00;96700.00;;;;4951065;29;20216;-72
2022/04/04 12:19:04;;;;;;;16.40;9.73;;;;;6.10;96699.00;;;;4944248;28;20581;-72
2022/04/04 12:21:53;;;;;;;11.10;8.73;;;;;6.00;96686.00;;;;4939906;29;20215;-72
2022/04/04 12:24:56;;;;;;;10.93;9.67;;;;;6.00;96675.00;;;;4947699;28;20204;-72
2022/04/04 12:27:59;;;;;;;13.33;10.10;;;;;6.10;96665.00;;;;4947847;29;20195;-72
2022/04/04 12:30:49;;;;;;;10.00;8.90;;;;;5.60;96664.00;;;;4948678;28;20231;-72
2022/04/04 12:33:39;;;;;;;15.83;9.93;;;;;6.50;96655.00;;;;4948047;29;20228;-71
2022/04/04 12:36:29;;;;;;;11.00;9.67;;;;;6.10;96654.00;;;;4947819;29;20207;-71
2022/04/04 12:39:19;;;;;;;12.90;9.67;;;;;6.10;96656.00;;;;4947486;28;20255;-72
2022/04/04 12:42:09;;;;;;;10.00;9.00;;;;;6.50;96654.00;;;;4951973;29;20208;-71
2022/04/04 12:44:58;;;;;;;9.60;8.40;;;;;6.60;96645.00;;;;4947597;29;20693;-72
2022/04/04 12:48:04;;;;;;;10.33;8.97;;;;;6.80;96633.00;;;;4951103;29;20215;-71
2022/04/04 12:50:53;;;;;;;9.67;8.53;;;;;6.50;96625.00;;;;4950791;28;20258;-71
2022/04/04 12:53:49;;;;;;;10.50;9.00;;;;;7.00;96624.00;;;;4950337;29;20216;-72
2022/04/04 12:56:51;;;;;;;10.50;9.40;;;;;7.20;96619.00;;;;4947585;28;20219;-71
2022/04/04 12:59:58;;;;;;;14.10;9.80;;;;;7.40;96617.00;;;;4950540;28;20228;-71
2022/04/04 13:02:47;;;;;;;11.27;8.97;;;;;7.70;96606.00;;;;4944289;29;20211;-70
2022/04/04 13:05:47;;;;;;;12.87;9.87;;;;;7.70;96613.00;;;;4950263;29;20207;-70
2022/04/04 13:08:36;;;;;;;9.37;8.33;;;;;7.90;96591.00;;;;4950956;28;20662;-70
2022/04/04 13:11:26;;;;;;;9.37;8.47;;;;;8.20;96601.00;;;;4949146;28;20231;-70
2022/04/04 13:14:15;;;;;;;11.07;8.77;;;;;7.60;96556.00;;;;4950198;29;20220;-70
2022/04/04 13:17:05;;;;;;;10.40;8.70;;;;;6.50;96560.00;;;;4951522;28;20214;-70
2022/04/04 13:19:54;;;;;;;11.87;9.43;;;;;6.60;96571.00;;;;4951527;28;20236;-70
2022/04/04 13:22:45;;;;;;;8.33;7.53;;;;;6.20;96565.00;;;;4943910;29;20204;-70
2022/04/04 13:25:34;;;;;;;10.57;8.37;;;;;6.30;96557.00;;;;4950626;29;20211;-71
2022/04/04 13:28:23;;;;;;;9.87;8.87;;;;;7.30;96568.00;;;;4950281;29;20216;-70
2022/04/04 13:31:12;;;;;;;10.83;8.97;;;;;7.70;96570.00;;;;4951173;28;20656;-69
2022/04/04 13:34:01;;;;;;;13.27;9.37;;;;;8.00;96562.00;;;;4944736;29;20235;-70
2022/04/04 13:36:50;;;;;;;9.70;8.70;;;;;8.30;96542.00;;;;4949960;29;20678;-70
2022/04/04 13:39:41;;;;;;;10.67;9.57;;;;;8.80;96542.00;;;;4950852;28;20238;-70
2022/04/04 13:42:30;;;;;;;11.10;8.57;;;;;8.80;96554.00;;;;4951286;28;20212;-70
2022/04/04 13:45:19;;;;;;;8.80;7.77;;;;;8.00;96544.00;;;;4948869;29;20223;-70
2022/04/04 13:48:08;;;;;;;9.63;8.40;;;;;7.50;96536.00;;;;4950472;29;20220;-69
2022/04/04 13:50:58;;;;;;;10.03;8.80;;;;;7.30;96521.00;;;;4951202;28;20800;-70
2022/04/04 13:53:47;;;;;;;11.33;8.37;;;;;7.00;96500.00;;;;4951493;28;20220;-69
2022/04/04 13:56:38;;;;;;;58.03;35.50;;;;;8.00;96445.00;;;;4940846;29;20756;-70
2022/04/04 13:59:27;;;;;;;104.60;61.30;;;;;8.20;96442.00;;;;4947965;28;20564;-70
2022/04/04 14:02:17;;;;;;;18.43;12.93;;;;;8.10;96495.00;;;;4948863;29;20204;-69
2022/04/04 14:05:11;;;;;;;65.13;41.73;;;;;7.70;96491.00;;;;4947192;28;20226;-69
2022/04/04 14:08:05;;;;;;;15.20;12.67;;;;;7.40;96492.00;;;;4949620;29;20199;-70
2022/04/04 14:10:55;;;;;;;11.70;10.53;;;;;6.50;96474.00;;;;4950776;28;20227;-70